Notice: Radar data often is about one hour behind.
Radar is unstable, so pay attention to the date and time in the image


Latest  Newer  Older  Last 2 hours animation  Current image  Latest image  Summary per 24h (testing)  Summary per 7d (testing) 
Cloud coverage sat images  Infrared sat images 
Real-time lightning map

All time is UTC (add 2 hours in wintertime, 3 hours in DST for Latvia local time)

2019/10/14 12:50 EVRA 141250Z 25007G19KT 190V310 9999 SCT033CB BKN043 BKN049 16/10 Q1007 R18/190095 NOSIG
2019/10/14 12:50 EVLA 141250Z AUTO 24024KT 9999 SCT019/// BKN038/// 14/11 Q1009
2019/10/14 12:50 EVVA 141250Z AUTO 24018G28KT 9999 FEW016 OVC034 14/12 Q1006
2019/10/14 12:50 EYKA 141250Z 25015KT CAVOK 20/12 Q1011
2019/10/14 12:50 EYPA 141250Z 26010G23KT 190V320 9999 BKN020 14/11 Q1011
2019/10/14 12:50 EYSA 141250Z 24019G29KT 9999 FEW034 17/09 Q1010 BLU NOSIG
2019/10/14 12:50 EYVI 141250Z 24012KT 9999 SCT029 20/14 Q1012 NOSIG
2019/10/14 12:50 EEKA 141250Z 04008KT 350V090 9999 OVC006 08/08 Q1003
2019/10/14 12:50 EEKE 141250Z AUTO 25010KT 220V290 9999NDV SCT016 BKN033 14/11 Q1003
2019/10/14 12:50 EEPU 141250Z 23014KT 9999 BKN012 14/14 Q1002
2019/10/14 12:50 EETN 141250Z 07012KT 9999 BKN009 OVC035 08/07 Q1003 TEMPO BKN006
2019/10/14 12:50 EETU 141250Z 26013KT 9999 SCT013 BKN033 15/12 Q1002
   RIGA AIRPORT     EVRA               56 55N  023 58E   10   X     T          6 LV
   LIEPAJA INTL     EVLA        26406  56 31N  021 06E    4   X                8 LV
   VENTPILS         EVVA               57 21N  021 33E    6   X                8 LV
   KAUNAS           EYKA               54 54N  023 55E   77   X     T          6 LT
   PALANGA INTL     EYPA               55 55N  021 03E   10   X                6 LT
   SIAULIAI INTL    EYSA               55 54N  023 24E  135   X     T          6 LT
   VILNIUS INTL     EYVI        26730  54 38N  025 17E  197   X     T          6 LT
   KARDLA           EEKA        26116  58 59N  022 50E    4   X                8 EE
   KURESSAARE       EEKE               58 14N  022 31E    4   X                8 EE
   PARNU            EEPU               58 25N  024 28E   14   X                8 EE
   TALLINN          EETN        26038  59 24N  024 49E   40   X     T          8 EE
   TARTU            EETU               58 19N  026 41E   67   X                8 EE

rain/snow radar image from www.meteo.lv and METAR data from weather.noaa.gov